createdAt,value
2018-06-15T16:33:06.196Z,23.00
2018-06-15T16:35:33.132Z,22.90
2018-06-15T16:38:07.452Z,22.80
2018-06-15T16:40:34.387Z,22.70
2018-06-15T16:43:01.325Z,22.60
2018-06-15T16:45:34.630Z,22.60
2018-06-15T16:48:01.589Z,22.60
2018-06-15T16:50:28.531Z,22.50
2018-06-15T16:52:55.523Z,22.60
2018-06-15T16:55:22.496Z,22.50
2018-06-15T16:57:49.574Z,22.40
2018-06-15T17:00:16.567Z,22.40
2018-06-15T17:02:43.520Z,22.40
2018-06-15T17:05:10.475Z,22.30
2018-06-15T17:07:37.639Z,22.20
2018-06-15T17:10:04.580Z,22.30
2018-06-15T17:12:31.563Z,22.20
2018-06-15T17:14:58.552Z,22.20
2018-06-15T17:17:25.502Z,22.10
2018-06-15T17:20:05.486Z,22.10
2018-06-15T17:22:32.437Z,22.10
2018-06-15T17:24:59.409Z,22.00
2018-06-15T17:27:26.441Z,22.00
2018-06-15T17:30:00.761Z,22.10
2018-06-15T17:32:27.721Z,22.20
2018-06-15T17:35:00.841Z,22.20
2018-06-15T17:37:28.823Z,22.30
2018-06-15T17:39:55.831Z,22.20
2018-06-15T17:42:22.768Z,22.20
2018-06-15T17:44:49.754Z,22.20
2018-06-15T17:47:16.687Z,22.30
2018-06-15T17:49:43.637Z,22.30
2018-06-15T17:52:10.682Z,22.20
2018-06-15T17:54:37.678Z,22.20
2018-06-15T17:57:04.701Z,22.20
2018-06-15T17:59:31.721Z,22.20
2018-06-15T18:01:58.855Z,22.20
2018-06-15T18:04:33.915Z,22.10
2018-06-15T18:07:00.911Z,22.20
2018-06-15T18:09:28.054Z,22.10
2018-06-15T18:11:55.089Z,22.10
2018-06-15T18:14:22.118Z,22.00
2018-06-15T18:16:49.159Z,21.90
2018-06-15T18:19:16.292Z,21.90
2018-06-15T18:21:43.339Z,21.90
2018-06-15T18:24:10.316Z,21.90
2018-06-15T18:26:37.461Z,21.90
2018-06-15T18:29:04.527Z,21.90
2018-06-15T18:31:31.560Z,22.00
2018-06-15T18:33:58.587Z,21.90
2018-06-15T18:36:26.244Z,22.00
2018-06-15T18:38:53.300Z,21.90
2018-06-15T18:41:20.302Z,21.80
2018-06-15T18:43:47.330Z,21.80
2018-06-15T18:46:14.340Z,21.70
2018-06-15T18:48:41.315Z,21.80
2018-06-15T18:51:08.309Z,21.60
2018-06-15T18:53:35.302Z,21.60
2018-06-15T18:56:02.280Z,21.50
2018-06-15T18:58:29.236Z,21.40
2018-06-15T19:00:56.620Z,21.40
2018-06-15T19:03:23.730Z,21.40
2018-06-15T19:05:50.660Z,21.40
2018-06-15T19:08:17.624Z,21.30
2018-06-15T19:10:44.639Z,21.30
2018-06-15T19:13:11.588Z,21.30
2018-06-15T19:15:38.594Z,21.20
2018-06-15T19:18:05.592Z,21.10
2018-06-15T19:20:32.662Z,21.10
2018-06-15T19:22:59.662Z,21.20
2018-06-15T19:25:27.437Z,21.20
2018-06-15T19:27:54.398Z,21.10
2018-06-15T19:30:21.401Z,21.10
2018-06-15T19:32:48.348Z,21.00
2018-06-15T19:35:15.305Z,21.00
2018-06-15T19:37:42.326Z,20.90
2018-06-15T19:40:13.268Z,21.00
2018-06-15T19:42:46.580Z,21.10
2018-06-15T19:45:13.565Z,21.10
2018-06-15T19:47:40.515Z,21.00
2018-06-15T19:50:07.487Z,21.20
2018-06-15T19:52:34.424Z,21.10
2018-06-15T19:55:01.408Z,20.90
2018-06-15T19:57:28.408Z,20.80
2018-06-15T19:59:55.387Z,20.80
2018-06-15T20:02:22.352Z,20.80
2018-06-15T20:04:49.301Z,20.70
2018-06-15T20:07:16.255Z,20.70
2018-06-15T20:09:43.670Z,20.70
2018-06-15T20:12:10.668Z,20.70
2018-06-15T20:14:37.679Z,20.60
2018-06-15T20:17:05.229Z,20.60
2018-06-15T20:19:32.224Z,20.60
2018-06-15T20:21:59.428Z,20.60
2018-06-15T20:24:27.378Z,20.60
2018-06-15T20:26:54.411Z,20.60
2018-06-15T20:29:21.416Z,20.50
2018-06-15T20:31:48.943Z,20.50
2018-06-15T20:34:15.927Z,20.50
2018-06-15T20:36:42.923Z,20.50
2018-06-15T20:39:10.355Z,20.40
2018-06-15T20:41:39.664Z,20.40
2018-06-15T20:44:06.662Z,20.40
2018-06-15T20:46:33.619Z,20.50
2018-06-15T20:49:00.970Z,20.40
2018-06-15T20:51:27.987Z,20.40
2018-06-15T20:53:54.932Z,20.30
2018-06-15T20:56:22.462Z,20.30
2018-06-15T20:58:49.463Z,20.30
2018-06-15T21:01:16.480Z,20.30
2018-06-15T21:03:43.407Z,20.30
2018-06-15T21:06:10.366Z,20.30
2018-06-15T21:08:37.371Z,20.40
2018-06-15T21:11:04.926Z,20.40
2018-06-15T21:13:31.866Z,20.40
2018-06-15T21:15:58.843Z,20.40
2018-06-15T21:18:25.871Z,20.40
2018-06-15T21:20:52.879Z,20.40
2018-06-15T21:23:19.816Z,20.30
2018-06-15T21:25:46.763Z,20.30
2018-06-15T21:28:14.060Z,20.30
2018-06-15T21:30:41.015Z,20.20
2018-06-15T21:33:07.969Z,20.20
2018-06-15T21:35:35.158Z,20.30
2018-06-15T21:38:02.132Z,20.30
2018-06-15T21:40:29.104Z,20.30
2018-06-15T21:42:56.041Z,20.30
2018-06-15T21:45:22.994Z,20.30
2018-06-15T21:47:49.973Z,20.20
2018-06-15T21:50:16.906Z,20.20
2018-06-15T21:52:43.838Z,20.10
2018-06-15T21:55:10.772Z,20.10
2018-06-15T21:57:37.728Z,20.10
2018-06-15T22:00:06.179Z,20.20
2018-06-15T22:02:33.133Z,20.10
2018-06-15T22:05:00.108Z,20.10
2018-06-15T22:07:27.048Z,20.00
2018-06-15T22:09:53.998Z,20.00
2018-06-15T22:14:48.023Z,20.00
2018-06-15T22:17:14.917Z,20.00
2018-06-15T22:19:41.861Z,20.00
2018-06-15T22:22:08.818Z,19.90
2018-06-15T22:24:35.750Z,19.90
2018-06-15T22:27:02.691Z,19.90
2018-06-15T22:29:29.627Z,19.90
2018-06-15T22:31:56.633Z,19.90
2018-06-15T22:34:23.572Z,19.90
2018-06-15T22:36:50.518Z,19.90
2018-06-15T22:39:17.458Z,19.80
2018-06-15T22:41:44.463Z,19.80
2018-06-15T22:44:12.146Z,19.80
2018-06-15T22:46:39.861Z,19.80
2018-06-15T22:49:07.356Z,19.80
2018-06-15T22:51:34.306Z,19.90
2018-06-15T22:54:01.246Z,19.90
2018-06-15T22:56:28.189Z,19.80
2018-06-15T22:58:55.167Z,19.80
2018-06-15T23:01:22.267Z,19.90
2018-06-15T23:03:49.231Z,19.90
2018-06-15T23:06:16.168Z,19.80
2018-06-15T23:08:43.109Z,19.80
2018-06-15T23:11:10.246Z,19.80
2018-06-15T23:13:37.222Z,19.80
2018-06-15T23:16:04.178Z,19.80
2018-06-15T23:18:31.122Z,19.70
2018-06-15T23:20:58.044Z,19.60
2018-06-15T23:23:25.281Z,19.60
2018-06-15T23:25:52.230Z,19.60
2018-06-15T23:28:19.188Z,19.60
2018-06-15T23:30:46.113Z,19.60
2018-06-15T23:33:13.043Z,19.60
2018-06-15T23:35:40.000Z,19.60
2018-06-15T23:38:07.024Z,19.60
2018-06-15T23:40:33.994Z,19.60
2018-06-15T23:43:01.010Z,19.60
2018-06-15T23:45:27.943Z,19.50
2018-06-15T23:47:54.903Z,19.50
2018-06-15T23:50:22.816Z,19.50
2018-06-15T23:52:49.966Z,19.40
2018-06-15T23:55:16.935Z,19.50
